sensor_id;sensor_type;location;lat;lon;timestamp;P1;durP1;ratioP1;P2;durP2;ratioP2
11447;SDS011;43755;49.736;8.734;2024-03-17T00:01:17;4.63;;;3.60;;
11447;SDS011;43755;49.736;8.734;2024-03-17T00:03:20;5.10;;;3.50;;
11447;SDS011;43755;49.736;8.734;2024-03-17T00:05:20;4.85;;;3.42;;
11447;SDS011;43755;49.736;8.734;2024-03-17T00:07:22;5.10;;;4.00;;
11447;SDS011;43755;49.736;8.734;2024-03-17T00:09:23;6.00;;;3.27;;
11447;SDS011;43755;49.736;8.734;2024-03-17T00:11:25;4.43;;;3.60;;
11447;SDS011;43755;49.736;8.734;2024-03-17T00:13:25;3.70;;;3.40;;
11447;SDS011;43755;49.736;8.734;2024-03-17T00:15:27;4.13;;;3.83;;
11447;SDS011;43755;49.736;8.734;2024-03-17T00:17:28;4.10;;;3.60;;
11447;SDS011;43755;49.736;8.734;2024-03-17T00:19:31;7.05;;;3.42;;
11447;SDS011;43755;49.736;8.734;2024-03-17T00:21:32;5.75;;;3.85;;
11447;SDS011;43755;49.736;8.734;2024-03-17T00:23:33;4.10;;;3.60;;
11447;SDS011;43755;49.736;8.734;2024-03-17T00:25:34;6.63;;;3.63;;
11447;SDS011;43755;49.736;8.734;2024-03-17T00:27:36;5.22;;;3.90;;
11447;SDS011;43755;49.736;8.734;2024-03-17T00:29:39;4.40;;;4.00;;
11447;SDS011;43755;49.736;8.734;2024-03-17T00:31:41;3.78;;;3.47;;
11447;SDS011;43755;49.736;8.734;2024-03-17T00:33:42;4.50;;;3.70;;
11447;SDS011;43755;49.736;8.734;2024-03-17T00:35:45;3.72;;;3.42;;
11447;SDS011;43755;49.736;8.734;2024-03-17T00:37:46;4.85;;;3.65;;
11447;SDS011;43755;49.736;8.734;2024-03-17T00:39:48;4.05;;;3.45;;
11447;SDS011;43755;49.736;8.734;2024-03-17T00:41:50;3.53;;;3.22;;
11447;SDS011;43755;49.736;8.734;2024-03-17T00:43:51;4.03;;;3.53;;
11447;SDS011;43755;49.736;8.734;2024-03-17T00:45:52;2.87;;;2.67;;
11447;SDS011;43755;49.736;8.734;2024-03-17T00:47:53;3.30;;;3.00;;
11447;SDS011;43755;49.736;8.734;2024-03-17T00:49:54;3.30;;;3.00;;
11447;SDS011;43755;49.736;8.734;2024-03-17T00:51:57;3.58;;;2.78;;
11447;SDS011;43755;49.736;8.734;2024-03-17T00:53:57;4.05;;;3.13;;
11447;SDS011;43755;49.736;8.734;2024-03-17T00:55:59;4.28;;;3.35;;
11447;SDS011;43755;49.736;8.734;2024-03-17T00:58:00;3.17;;;2.97;;
11447;SDS011;43755;49.736;8.734;2024-03-17T01:00:03;4.90;;;3.05;;
11447;SDS011;43755;49.736;8.734;2024-03-17T01:02:05;3.80;;;3.30;;
11447;SDS011;43755;49.736;8.734;2024-03-17T01:04:06;2.88;;;2.67;;
11447;SDS011;43755;49.736;8.734;2024-03-17T01:06:07;3.57;;;3.10;;
11447;SDS011;43755;49.736;8.734;2024-03-17T01:08:10;4.55;;;3.35;;
11447;SDS011;43755;49.736;8.734;2024-03-17T01:10:11;3.83;;;2.40;;
11447;SDS011;43755;49.736;8.734;2024-03-17T01:12:12;3.22;;;2.58;;
11447;SDS011;43755;49.736;8.734;2024-03-17T01:14:13;3.83;;;3.07;;
11447;SDS011;43755;49.736;8.734;2024-03-17T01:16:14;3.70;;;2.65;;
11447;SDS011;43755;49.736;8.734;2024-03-17T01:18:15;3.58;;;2.45;;
11447;SDS011;43755;49.736;8.734;2024-03-17T01:20:17;2.70;;;2.50;;
11447;SDS011;43755;49.736;8.734;2024-03-17T01:22:17;3.57;;;2.67;;
11447;SDS011;43755;49.736;8.734;2024-03-17T01:24:20;3.22;;;2.65;;
11447;SDS011;43755;49.736;8.734;2024-03-17T01:26:21;3.03;;;2.20;;
11447;SDS011;43755;49.736;8.734;2024-03-17T01:28:23;3.50;;;2.28;;
11447;SDS011;43755;49.736;8.734;2024-03-17T01:30:24;2.60;;;2.40;;
11447;SDS011;43755;49.736;8.734;2024-03-17T01:32:25;2.35;;;2.15;;
11447;SDS011;43755;49.736;8.734;2024-03-17T01:34:26;2.60;;;2.40;;
11447;SDS011;43755;49.736;8.734;2024-03-17T01:36:28;3.13;;;2.17;;
11447;SDS011;43755;49.736;8.734;2024-03-17T01:38:29;2.40;;;2.30;;
11447;SDS011;43755;49.736;8.734;2024-03-17T01:40:32;2.97;;;2.10;;
11447;SDS011;43755;49.736;8.734;2024-03-17T01:42:32;2.10;;;2.00;;
11447;SDS011;43755;49.736;8.734;2024-03-17T01:44:34;2.10;;;1.90;;
11447;SDS011;43755;49.736;8.734;2024-03-17T01:46:34;4.07;;;2.40;;
11447;SDS011;43755;49.736;8.734;2024-03-17T01:48:36;2.75;;;2.17;;
11447;SDS011;43755;49.736;8.734;2024-03-17T01:50:37;3.28;;;2.00;;
11447;SDS011;43755;49.736;8.734;2024-03-17T01:52:39;1.98;;;1.88;;
11447;SDS011;43755;49.736;8.734;2024-03-17T01:54:40;2.43;;;2.10;;
11447;SDS011;43755;49.736;8.734;2024-03-17T01:56:43;1.77;;;1.67;;
11447;SDS011;43755;49.736;8.734;2024-03-17T01:58:45;2.55;;;1.83;;
11447;SDS011;43755;49.736;8.734;2024-03-17T02:00:46;4.22;;;2.10;;
11447;SDS011;43755;49.736;8.734;2024-03-17T02:02:47;2.07;;;1.70;;
11447;SDS011;43755;49.736;8.734;2024-03-17T02:04:49;1.73;;;1.63;;
11447;SDS011;43755;49.736;8.734;2024-03-17T02:06:50;4.50;;;2.00;;
11447;SDS011;43755;49.736;8.734;2024-03-17T02:08:52;3.28;;;2.05;;
11447;SDS011;43755;49.736;8.734;2024-03-17T02:10:54;1.75;;;1.65;;
11447;SDS011;43755;49.736;8.734;2024-03-17T02:12:57;2.22;;;1.80;;
11447;SDS011;43755;49.736;8.734;2024-03-17T02:14:58;2.25;;;1.65;;
11447;SDS011;43755;49.736;8.734;2024-03-17T02:17:00;1.60;;;1.50;;
11447;SDS011;43755;49.736;8.734;2024-03-17T02:19:01;2.60;;;1.80;;
11447;SDS011;43755;49.736;8.734;2024-03-17T02:21:02;2.45;;;1.80;;
11447;SDS011;43755;49.736;8.734;2024-03-17T02:23:05;1.70;;;1.60;;
11447;SDS011;43755;49.736;8.734;2024-03-17T02:25:05;3.20;;;1.80;;
11447;SDS011;43755;49.736;8.734;2024-03-17T02:27:08;3.75;;;1.73;;
11447;SDS011;43755;49.736;8.734;2024-03-17T02:29:09;1.63;;;1.53;;
11447;SDS011;43755;49.736;8.734;2024-03-17T02:31:11;2.05;;;1.45;;
11447;SDS011;43755;49.736;8.734;2024-03-17T02:33:13;1.60;;;1.50;;
11447;SDS011;43755;49.736;8.734;2024-03-17T02:35:15;1.90;;;1.80;;
11447;SDS011;43755;49.736;8.734;2024-03-17T02:37:15;2.87;;;1.60;;
11447;SDS011;43755;49.736;8.734;2024-03-17T02:39:18;2.17;;;1.80;;
11447;SDS011;43755;49.736;8.734;2024-03-17T02:41:34;1.63;;;1.52;;
11447;SDS011;43755;49.736;8.734;2024-03-17T02:43:35;1.60;;;1.50;;
11447;SDS011;43755;49.736;8.734;2024-03-17T02:45:36;2.67;;;1.80;;
11447;SDS011;43755;49.736;8.734;2024-03-17T02:47:38;1.70;;;1.60;;
11447;SDS011;43755;49.736;8.734;2024-03-17T02:49:39;1.77;;;1.67;;
11447;SDS011;43755;49.736;8.734;2024-03-17T02:51:43;3.63;;;1.85;;
11447;SDS011;43755;49.736;8.734;2024-03-17T02:53:46;1.77;;;1.67;;
11447;SDS011;43755;49.736;8.734;2024-03-17T02:55:48;1.98;;;1.88;;
11447;SDS011;43755;49.736;8.734;2024-03-17T02:57:50;2.63;;;1.88;;
11447;SDS011;43755;49.736;8.734;2024-03-17T02:59:51;2.95;;;1.83;;
11447;SDS011;43755;49.736;8.734;2024-03-17T03:01:53;3.15;;;1.77;;
11447;SDS011;43755;49.736;8.734;2024-03-17T03:03:54;2.67;;;1.73;;
11447;SDS011;43755;49.736;8.734;2024-03-17T03:05:56;2.30;;;2.13;;
11447;SDS011;43755;49.736;8.734;2024-03-17T03:07:57;2.60;;;2.10;;
11447;SDS011;43755;49.736;8.734;2024-03-17T03:09:59;2.78;;;1.92;;
11447;SDS011;43755;49.736;8.734;2024-03-17T03:12:01;1.98;;;1.88;;
11447;SDS011;43755;49.736;8.734;2024-03-17T03:14:03;3.95;;;1.98;;
11447;SDS011;43755;49.736;8.734;2024-03-17T03:16:05;4.57;;;1.98;;
11447;SDS011;43755;49.736;8.734;2024-03-17T03:18:08;3.47;;;2.20;;
11447;SDS011;43755;49.736;8.734;2024-03-17T03:20:09;1.90;;;1.80;;
11447;SDS011;43755;49.736;8.734;2024-03-17T03:22:12;2.88;;;2.00;;
11447;SDS011;43755;49.736;8.734;2024-03-17T03:24:13;1.97;;;1.80;;
11447;SDS011;43755;49.736;8.734;2024-03-17T03:26:15;3.47;;;1.80;;
11447;SDS011;43755;49.736;8.734;2024-03-17T03:28:18;2.47;;;1.98;;
11447;SDS011;43755;49.736;8.734;2024-03-17T03:30:18;3.78;;;1.92;;
11447;SDS011;43755;49.736;8.734;2024-03-17T03:32:21;2.00;;;1.90;;
11447;SDS011;43755;49.736;8.734;2024-03-17T03:34:22;3.55;;;1.90;;
11447;SDS011;43755;49.736;8.734;2024-03-17T03:36:25;2.60;;;1.90;;
11447;SDS011;43755;49.736;8.734;2024-03-17T03:38:26;1.87;;;1.77;;
11447;SDS011;43755;49.736;8.734;2024-03-17T03:40:27;2.47;;;1.80;;
11447;SDS011;43755;49.736;8.734;2024-03-17T03:42:28;2.80;;;1.80;;
11447;SDS011;43755;49.736;8.734;2024-03-17T03:44:31;3.03;;;1.88;;
11447;SDS011;43755;49.736;8.734;2024-03-17T03:46:33;3.78;;;1.80;;
11447;SDS011;43755;49.736;8.734;2024-03-17T03:48:35;2.45;;;1.77;;
11447;SDS011;43755;49.736;8.734;2024-03-17T03:50:36;3.20;;;2.10;;
11447;SDS011;43755;49.736;8.734;2024-03-17T03:52:39;3.13;;;1.90;;
11447;SDS011;43755;49.736;8.734;2024-03-17T03:54:40;1.80;;;1.70;;
11447;SDS011;43755;49.736;8.734;2024-03-17T03:56:42;2.22;;;2.03;;
11447;SDS011;43755;49.736;8.734;2024-03-17T03:58:44;2.25;;;2.03;;
11447;SDS011;43755;49.736;8.734;2024-03-17T04:00:47;3.38;;;2.28;;
11447;SDS011;43755;49.736;8.734;2024-03-17T04:02:49;2.30;;;2.10;;
11447;SDS011;43755;49.736;8.734;2024-03-17T04:04:51;3.30;;;2.13;;
11447;SDS011;43755;49.736;8.734;2024-03-17T04:06:53;2.10;;;2.00;;
11447;SDS011;43755;49.736;8.734;2024-03-17T04:08:54;2.33;;;2.13;;
11447;SDS011;43755;49.736;8.734;2024-03-17T04:10:56;4.65;;;2.22;;
11447;SDS011;43755;49.736;8.734;2024-03-17T04:12:56;3.40;;;2.27;;
11447;SDS011;43755;49.736;8.734;2024-03-17T04:14:58;3.85;;;2.25;;
11447;SDS011;43755;49.736;8.734;2024-03-17T04:17:00;4.20;;;2.00;;
11447;SDS011;43755;49.736;8.734;2024-03-17T04:19:03;3.03;;;2.13;;
11447;SDS011;43755;49.736;8.734;2024-03-17T04:21:05;5.43;;;2.40;;
11447;SDS011;43755;49.736;8.734;2024-03-17T04:23:08;2.75;;;2.30;;
11447;SDS011;43755;49.736;8.734;2024-03-17T04:25:10;2.10;;;2.00;;
11447;SDS011;43755;49.736;8.734;2024-03-17T04:27:14;2.15;;;2.05;;
11447;SDS011;43755;49.736;8.734;2024-03-17T04:29:16;2.50;;;2.05;;
11447;SDS011;43755;49.736;8.734;2024-03-17T04:31:16;2.80;;;2.10;;
11447;SDS011;43755;49.736;8.734;2024-03-17T04:33:19;2.35;;;2.10;;
11447;SDS011;43755;49.736;8.734;2024-03-17T04:35:21;2.25;;;2.05;;
11447;SDS011;43755;49.736;8.734;2024-03-17T04:37:21;2.10;;;2.00;;
11447;SDS011;43755;49.736;8.734;2024-03-17T04:39:24;2.60;;;2.03;;
11447;SDS011;43755;49.736;8.734;2024-03-17T04:41:26;2.35;;;2.15;;
11447;SDS011;43755;49.736;8.734;2024-03-17T04:43:27;2.53;;;2.30;;
11447;SDS011;43755;49.736;8.734;2024-03-17T04:45:30;2.35;;;2.10;;
11447;SDS011;43755;49.736;8.734;2024-03-17T04:47:31;2.40;;;2.20;;
11447;SDS011;43755;49.736;8.734;2024-03-17T04:49:36;3.13;;;2.50;;
11447;SDS011;43755;49.736;8.734;2024-03-17T04:51:37;2.33;;;2.10;;
11447;SDS011;43755;49.736;8.734;2024-03-17T04:53:38;2.00;;;1.90;;
11447;SDS011;43755;49.736;8.734;2024-03-17T04:55:41;2.25;;;1.80;;
11447;SDS011;43755;49.736;8.734;2024-03-17T04:57:43;2.83;;;1.90;;
11447;SDS011;43755;49.736;8.734;2024-03-17T04:59:44;1.85;;;1.75;;
11447;SDS011;43755;49.736;8.734;2024-03-17T05:01:46;1.92;;;1.83;;
11447;SDS011;43755;49.736;8.734;2024-03-17T05:03:50;2.55;;;1.70;;
11447;SDS011;43755;49.736;8.734;2024-03-17T05:05:59;2.50;;;2.05;;
11447;SDS011;43755;49.736;8.734;2024-03-17T05:08:04;2.50;;;2.30;;
11447;SDS011;43755;49.736;8.734;2024-03-17T05:10:06;4.35;;;2.20;;
11447;SDS011;43755;49.736;8.734;2024-03-17T05:12:07;3.15;;;1.98;;
11447;SDS011;43755;49.736;8.734;2024-03-17T05:14:09;3.25;;;2.33;;
11447;SDS011;43755;49.736;8.734;2024-03-17T05:16:10;3.92;;;2.55;;
11447;SDS011;43755;49.736;8.734;2024-03-17T05:18:12;3.25;;;2.50;;
11447;SDS011;43755;49.736;8.734;2024-03-17T05:20:14;4.95;;;2.72;;
11447;SDS011;43755;49.736;8.734;2024-03-17T05:22:17;2.88;;;2.67;;
11447;SDS011;43755;49.736;8.734;2024-03-17T05:24:17;4.35;;;2.97;;
11447;SDS011;43755;49.736;8.734;2024-03-17T05:26:19;4.18;;;2.85;;
11447;SDS011;43755;49.736;8.734;2024-03-17T05:28:21;6.43;;;2.97;;
11447;SDS011;43755;49.736;8.734;2024-03-17T05:30:22;5.85;;;2.70;;
11447;SDS011;43755;49.736;8.734;2024-03-17T05:32:25;3.15;;;2.83;;
11447;SDS011;43755;49.736;8.734;2024-03-17T05:34:26;3.00;;;2.80;;
11447;SDS011;43755;49.736;8.734;2024-03-17T05:36:28;3.88;;;3.05;;
11447;SDS011;43755;49.736;8.734;2024-03-17T05:38:33;3.40;;;2.72;;
11447;SDS011;43755;49.736;8.734;2024-03-17T05:40:35;2.85;;;2.58;;
11447;SDS011;43755;49.736;8.734;2024-03-17T05:42:41;3.17;;;2.50;;
11447;SDS011;43755;49.736;8.734;2024-03-17T05:44:43;3.40;;;2.42;;
11447;SDS011;43755;49.736;8.734;2024-03-17T05:46:50;3.33;;;2.47;;
11447;SDS011;43755;49.736;8.734;2024-03-17T05:48:53;6.30;;;2.55;;
11447;SDS011;43755;49.736;8.734;2024-03-17T05:50:53;3.63;;;2.63;;
11447;SDS011;43755;49.736;8.734;2024-03-17T05:52:55;2.80;;;2.60;;
11447;SDS011;43755;49.736;8.734;2024-03-17T05:54:57;2.77;;;2.47;;
11447;SDS011;43755;49.736;8.734;2024-03-17T05:56:58;4.55;;;2.38;;
11447;SDS011;43755;49.736;8.734;2024-03-17T05:59:00;4.38;;;3.00;;
11447;SDS011;43755;49.736;8.734;2024-03-17T06:01:02;2.70;;;2.50;;
11447;SDS011;43755;49.736;8.734;2024-03-17T06:03:03;2.38;;;2.28;;
11447;SDS011;43755;49.736;8.734;2024-03-17T06:05:05;4.88;;;2.72;;
11447;SDS011;43755;49.736;8.734;2024-03-17T06:07:10;4.07;;;2.50;;
11447;SDS011;43755;49.736;8.734;2024-03-17T06:09:11;4.88;;;2.65;;
11447;SDS011;43755;49.736;8.734;2024-03-17T06:11:19;2.88;;;2.58;;
11447;SDS011;43755;49.736;8.734;2024-03-17T06:13:20;2.97;;;2.70;;
11447;SDS011;43755;49.736;8.734;2024-03-17T06:15:21;4.23;;;2.67;;
11447;SDS011;43755;49.736;8.734;2024-03-17T06:17:23;3.95;;;2.78;;
11447;SDS011;43755;49.736;8.734;2024-03-17T06:19:25;2.90;;;2.70;;
11447;SDS011;43755;49.736;8.734;2024-03-17T06:21:25;5.20;;;2.70;;
11447;SDS011;43755;49.736;8.734;2024-03-17T06:23:27;4.68;;;2.88;;
11447;SDS011;43755;49.736;8.734;2024-03-17T06:25:28;2.70;;;2.50;;
11447;SDS011;43755;49.736;8.734;2024-03-17T06:27:30;3.87;;;2.83;;
11447;SDS011;43755;49.736;8.734;2024-03-17T06:29:33;4.30;;;3.03;;
11447;SDS011;43755;49.736;8.734;2024-03-17T06:31:35;2.90;;;2.70;;
11447;SDS011;43755;49.736;8.734;2024-03-17T06:33:36;2.70;;;2.50;;
11447;SDS011;43755;49.736;8.734;2024-03-17T06:35:37;3.83;;;2.53;;
11447;SDS011;43755;49.736;8.734;2024-03-17T06:37:39;3.35;;;2.40;;
11447;SDS011;43755;49.736;8.734;2024-03-17T06:39:40;2.83;;;2.53;;
11447;SDS011;43755;49.736;8.734;2024-03-17T06:41:42;2.70;;;2.50;;
11447;SDS011;43755;49.736;8.734;2024-03-17T06:43:45;2.90;;;2.20;;
11447;SDS011;43755;49.736;8.734;2024-03-17T06:45:56;3.40;;;2.72;;
11447;SDS011;43755;49.736;8.734;2024-03-17T06:47:58;3.10;;;2.78;;
11447;SDS011;43755;49.736;8.734;2024-03-17T06:49:59;4.13;;;2.47;;
11447;SDS011;43755;49.736;8.734;2024-03-17T06:52:00;4.13;;;2.65;;
11447;SDS011;43755;49.736;8.734;2024-03-17T06:54:01;2.73;;;2.50;;
11447;SDS011;43755;49.736;8.734;2024-03-17T06:56:04;2.40;;;2.20;;
11447;SDS011;43755;49.736;8.734;2024-03-17T06:58:06;2.50;;;2.30;;
11447;SDS011;43755;49.736;8.734;2024-03-17T07:00:08;2.10;;;2.00;;
11447;SDS011;43755;49.736;8.734;2024-03-17T07:02:14;2.97;;;2.10;;
11447;SDS011;43755;49.736;8.734;2024-03-17T07:04:17;2.53;;;2.20;;
11447;SDS011;43755;49.736;8.734;2024-03-17T07:06:21;2.67;;;2.20;;
11447;SDS011;43755;49.736;8.734;2024-03-17T07:08:22;2.20;;;2.10;;
11447;SDS011;43755;49.736;8.734;2024-03-17T07:10:24;3.60;;;2.50;;
11447;SDS011;43755;49.736;8.734;2024-03-17T07:12:26;2.90;;;2.15;;
11447;SDS011;43755;49.736;8.734;2024-03-17T07:14:28;2.30;;;2.20;;
11447;SDS011;43755;49.736;8.734;2024-03-17T07:16:33;2.50;;;2.30;;
11447;SDS011;43755;49.736;8.734;2024-03-17T07:18:34;2.65;;;2.45;;
11447;SDS011;43755;49.736;8.734;2024-03-17T07:20:37;3.10;;;2.30;;
11447;SDS011;43755;49.736;8.734;2024-03-17T07:22:38;2.90;;;2.30;;
11447;SDS011;43755;49.736;8.734;2024-03-17T07:24:40;3.33;;;2.30;;
11447;SDS011;43755;49.736;8.734;2024-03-17T07:26:44;3.47;;;2.30;;
11447;SDS011;43755;49.736;8.734;2024-03-17T07:28:45;3.35;;;2.45;;
11447;SDS011;43755;49.736;8.734;2024-03-17T07:30:47;4.07;;;2.28;;
11447;SDS011;43755;49.736;8.734;2024-03-17T07:32:51;2.42;;;2.22;;
11447;SDS011;43755;49.736;8.734;2024-03-17T07:34:52;3.72;;;2.60;;
11447;SDS011;43755;49.736;8.734;2024-03-17T07:36:54;3.15;;;2.20;;
11447;SDS011;43755;49.736;8.734;2024-03-17T07:38:56;3.15;;;2.60;;
11447;SDS011;43755;49.736;8.734;2024-03-17T07:40:58;3.38;;;3.08;;
11447;SDS011;43755;49.736;8.734;2024-03-17T07:43:01;3.58;;;3.25;;
11447;SDS011;43755;49.736;8.734;2024-03-17T07:45:03;3.33;;;3.08;;
11447;SDS011;43755;49.736;8.734;2024-03-17T07:47:05;3.38;;;3.08;;
11447;SDS011;43755;49.736;8.734;2024-03-17T07:49:07;3.17;;;2.88;;
11447;SDS011;43755;49.736;8.734;2024-03-17T07:51:09;3.70;;;2.50;;
11447;SDS011;43755;49.736;8.734;2024-03-17T07:53:12;2.97;;;2.67;;
11447;SDS011;43755;49.736;8.734;2024-03-17T07:55:13;4.32;;;3.03;;
11447;SDS011;43755;49.736;8.734;2024-03-17T07:57:15;2.90;;;2.70;;
11447;SDS011;43755;49.736;8.734;2024-03-17T07:59:16;2.88;;;2.65;;
11447;SDS011;43755;49.736;8.734;2024-03-17T08:01:18;3.30;;;3.00;;
11447;SDS011;43755;49.736;8.734;2024-03-17T08:03:20;3.20;;;3.00;;
11447;SDS011;43755;49.736;8.734;2024-03-17T08:05:22;3.00;;;2.80;;
11447;SDS011;43755;49.736;8.734;2024-03-17T08:07:23;2.97;;;2.70;;
11447;SDS011;43755;49.736;8.734;2024-03-17T08:09:25;4.15;;;2.70;;
11447;SDS011;43755;49.736;8.734;2024-03-17T08:11:26;9.82;;;3.13;;
11447;SDS011;43755;49.736;8.734;2024-03-17T08:13:28;6.82;;;2.65;;
11447;SDS011;43755;49.736;8.734;2024-03-17T08:15:31;3.03;;;2.33;;
11447;SDS011;43755;49.736;8.734;2024-03-17T08:17:33;4.20;;;2.25;;
11447;SDS011;43755;49.736;8.734;2024-03-17T08:19:35;2.97;;;2.30;;
11447;SDS011;43755;49.736;8.734;2024-03-17T08:21:38;2.65;;;2.08;;
11447;SDS011;43755;49.736;8.734;2024-03-17T08:23:39;2.53;;;2.30;;
11447;SDS011;43755;49.736;8.734;2024-03-17T08:25:42;1.98;;;1.77;;
11447;SDS011;43755;49.736;8.734;2024-03-17T08:27:53;3.28;;;2.25;;
11447;SDS011;43755;49.736;8.734;2024-03-17T08:29:54;2.55;;;2.10;;
11447;SDS011;43755;49.736;8.734;2024-03-17T08:31:56;4.25;;;1.98;;
11447;SDS011;43755;49.736;8.734;2024-03-17T08:33:57;3.42;;;2.08;;
11447;SDS011;43755;49.736;8.734;2024-03-17T08:35:59;2.65;;;2.22;;
11447;SDS011;43755;49.736;8.734;2024-03-17T08:38:03;5.72;;;2.30;;
11447;SDS011;43755;49.736;8.734;2024-03-17T08:40:05;3.30;;;2.40;;
11447;SDS011;43755;49.736;8.734;2024-03-17T08:42:08;3.15;;;1.90;;
11447;SDS011;43755;49.736;8.734;2024-03-17T08:44:09;2.85;;;1.90;;
11447;SDS011;43755;49.736;8.734;2024-03-17T08:46:11;4.63;;;2.00;;
11447;SDS011;43755;49.736;8.734;2024-03-17T08:48:13;2.28;;;2.08;;
11447;SDS011;43755;49.736;8.734;2024-03-17T08:50:15;3.08;;;2.30;;
11447;SDS011;43755;49.736;8.734;2024-03-17T08:52:16;2.85;;;2.10;;
11447;SDS011;43755;49.736;8.734;2024-03-17T08:54:19;2.13;;;1.90;;
11447;SDS011;43755;49.736;8.734;2024-03-17T08:56:20;2.10;;;2.00;;
11447;SDS011;43755;49.736;8.734;2024-03-17T08:58:23;2.40;;;2.20;;
11447;SDS011;43755;49.736;8.734;2024-03-17T09:00:24;3.13;;;2.30;;
11447;SDS011;43755;49.736;8.734;2024-03-17T09:02:26;3.50;;;2.05;;
11447;SDS011;43755;49.736;8.734;2024-03-17T09:04:28;4.43;;;2.05;;
11447;SDS011;43755;49.736;8.734;2024-03-17T09:06:29;3.05;;;2.40;;
11447;SDS011;43755;49.736;8.734;2024-03-17T09:08:31;2.75;;;2.22;;
11447;SDS011;43755;49.736;8.734;2024-03-17T09:10:38;2.17;;;2.00;;
11447;SDS011;43755;49.736;8.734;2024-03-17T09:12:40;2.40;;;2.20;;
11447;SDS011;43755;49.736;8.734;2024-03-17T09:14:41;2.90;;;2.70;;
11447;SDS011;43755;49.736;8.734;2024-03-17T09:16:43;3.10;;;2.80;;
11447;SDS011;43755;49.736;8.734;2024-03-17T09:18:44;3.50;;;3.00;;
11447;SDS011;43755;49.736;8.734;2024-03-17T09:20:45;4.47;;;2.97;;
11447;SDS011;43755;49.736;8.734;2024-03-17T09:22:47;3.30;;;3.00;;
11447;SDS011;43755;49.736;8.734;2024-03-17T09:24:48;3.75;;;3.05;;
11447;SDS011;43755;49.736;8.734;2024-03-17T09:26:51;4.47;;;2.93;;
11447;SDS011;43755;49.736;8.734;2024-03-17T09:28:53;3.50;;;3.20;;
11447;SDS011;43755;49.736;8.734;2024-03-17T09:30:54;3.35;;;3.05;;
11447;SDS011;43755;49.736;8.734;2024-03-17T09:32:56;3.53;;;3.10;;
11447;SDS011;43755;49.736;8.734;2024-03-17T09:34:58;5.15;;;3.30;;
11447;SDS011;43755;49.736;8.734;2024-03-17T09:37:00;3.45;;;3.08;;
11447;SDS011;43755;49.736;8.734;2024-03-17T09:39:01;3.50;;;3.20;;
11447;SDS011;43755;49.736;8.734;2024-03-17T09:41:05;4.03;;;3.40;;
11447;SDS011;43755;49.736;8.734;2024-03-17T09:43:09;3.80;;;3.40;;
11447;SDS011;43755;49.736;8.734;2024-03-17T09:45:13;4.63;;;3.38;;
11447;SDS011;43755;49.736;8.734;2024-03-17T09:47:18;4.90;;;3.17;;
11447;SDS011;43755;49.736;8.734;2024-03-17T09:49:21;3.60;;;3.30;;
11447;SDS011;43755;49.736;8.734;2024-03-17T09:51:23;4.85;;;3.65;;
11447;SDS011;43755;49.736;8.734;2024-03-17T09:53:27;4.20;;;3.42;;
11447;SDS011;43755;49.736;8.734;2024-03-17T09:55:29;3.50;;;3.20;;
11447;SDS011;43755;49.736;8.734;2024-03-17T09:57:31;4.70;;;3.38;;
11447;SDS011;43755;49.736;8.734;2024-03-17T09:59:36;5.93;;;3.97;;
11447;SDS011;43755;49.736;8.734;2024-03-17T10:01:37;3.80;;;3.50;;
11447;SDS011;43755;49.736;8.734;2024-03-17T10:03:39;4.22;;;3.72;;
11447;SDS011;43755;49.736;8.734;2024-03-17T10:05:41;3.60;;;3.30;;
11447;SDS011;43755;49.736;8.734;2024-03-17T10:07:44;6.38;;;3.60;;
11447;SDS011;43755;49.736;8.734;2024-03-17T10:09:44;3.83;;;3.43;;
11447;SDS011;43755;49.736;8.734;2024-03-17T10:11:46;4.55;;;3.30;;
11447;SDS011;43755;49.736;8.734;2024-03-17T10:13:59;3.65;;;3.30;;
11447;SDS011;43755;49.736;8.734;2024-03-17T10:16:03;4.93;;;3.30;;
11447;SDS011;43755;49.736;8.734;2024-03-17T10:18:10;4.07;;;3.40;;
11447;SDS011;43755;49.736;8.734;2024-03-17T10:20:23;4.78;;;3.55;;
11447;SDS011;43755;49.736;8.734;2024-03-17T10:22:26;4.97;;;3.20;;
11447;SDS011;43755;49.736;8.734;2024-03-17T10:24:28;5.05;;;3.25;;
11447;SDS011;43755;49.736;8.734;2024-03-17T10:26:30;3.70;;;3.40;;
11447;SDS011;43755;49.736;8.734;2024-03-17T10:28:31;3.70;;;3.40;;
11447;SDS011;43755;49.736;8.734;2024-03-17T10:30:33;5.28;;;3.65;;
11447;SDS011;43755;49.736;8.734;2024-03-17T10:32:36;3.63;;;3.30;;
11447;SDS011;43755;49.736;8.734;2024-03-17T10:34:37;9.48;;;3.40;;
11447;SDS011;43755;49.736;8.734;2024-03-17T10:36:39;4.18;;;3.72;;
11447;SDS011;43755;49.736;8.734;2024-03-17T10:38:40;4.00;;;3.50;;
11447;SDS011;43755;49.736;8.734;2024-03-17T10:40:52;7.13;;;3.20;;
11447;SDS011;43755;49.736;8.734;2024-03-17T10:42:56;3.40;;;3.10;;
11447;SDS011;43755;49.736;8.734;2024-03-17T10:44:58;3.80;;;3.45;;
11447;SDS011;43755;49.736;8.734;2024-03-17T10:47:00;4.28;;;3.28;;
11447;SDS011;43755;49.736;8.734;2024-03-17T10:49:04;4.07;;;3.67;;
11447;SDS011;43755;49.736;8.734;2024-03-17T10:51:11;5.22;;;3.42;;
11447;SDS011;43755;49.736;8.734;2024-03-17T10:53:19;4.75;;;3.50;;
11447;SDS011;43755;49.736;8.734;2024-03-17T10:55:26;4.93;;;3.42;;
11447;SDS011;43755;49.736;8.734;2024-03-17T10:57:31;4.00;;;3.60;;
11447;SDS011;43755;49.736;8.734;2024-03-17T10:59:42;4.53;;;3.50;;
11447;SDS011;43755;49.736;8.734;2024-03-17T11:01:48;4.68;;;3.28;;
11447;SDS011;43755;49.736;8.734;2024-03-17T11:03:50;4.53;;;3.22;;
11447;SDS011;43755;49.736;8.734;2024-03-17T11:05:55;3.40;;;3.10;;
11447;SDS011;43755;49.736;8.734;2024-03-17T11:07:57;3.22;;;3.03;;
11447;SDS011;43755;49.736;8.734;2024-03-17T11:10:01;2.95;;;2.70;;
11447;SDS011;43755;49.736;8.734;2024-03-17T11:12:04;4.13;;;3.08;;
11447;SDS011;43755;49.736;8.734;2024-03-17T11:14:15;3.25;;;2.92;;
11447;SDS011;43755;49.736;8.734;2024-03-17T11:16:25;3.22;;;3.00;;
11447;SDS011;43755;49.736;8.734;2024-03-17T11:18:37;3.50;;;3.20;;
11447;SDS011;43755;49.736;8.734;2024-03-17T11:20:38;3.97;;;3.40;;
11447;SDS011;43755;49.736;8.734;2024-03-17T11:22:45;6.38;;;3.10;;
11447;SDS011;43755;49.736;8.734;2024-03-17T11:24:46;7.78;;;3.20;;
11447;SDS011;43755;49.736;8.734;2024-03-17T11:26:48;4.47;;;3.60;;
11447;SDS011;43755;49.736;8.734;2024-03-17T11:28:51;4.78;;;3.78;;
11447;SDS011;43755;49.736;8.734;2024-03-17T11:30:52;4.18;;;3.45;;
11447;SDS011;43755;49.736;8.734;2024-03-17T11:32:55;7.70;;;4.38;;
11447;SDS011;43755;49.736;8.734;2024-03-17T11:39:50;4.10;;;3.67;;
11447;SDS011;43755;49.736;8.734;2024-03-17T11:41:55;5.28;;;3.97;;
11447;SDS011;43755;49.736;8.734;2024-03-17T11:44:14;12.07;;;4.70;;
11447;SDS011;43755;49.736;8.734;2024-03-17T11:46:18;6.07;;;3.70;;
11447;SDS011;43755;49.736;8.734;2024-03-17T11:48:19;4.13;;;3.67;;
11447;SDS011;43755;49.736;8.734;2024-03-17T11:50:20;4.18;;;3.88;;
11447;SDS011;43755;49.736;8.734;2024-03-17T11:52:21;4.57;;;3.67;;
11447;SDS011;43755;49.736;8.734;2024-03-17T11:54:24;4.40;;;3.40;;
11447;SDS011;43755;49.736;8.734;2024-03-17T11:56:28;4.55;;;3.38;;
11447;SDS011;43755;49.736;8.734;2024-03-17T11:58:30;4.35;;;3.30;;
11447;SDS011;43755;49.736;8.734;2024-03-17T12:00:33;5.80;;;4.28;;
11447;SDS011;43755;49.736;8.734;2024-03-17T12:02:34;5.93;;;3.70;;
11447;SDS011;43755;49.736;8.734;2024-03-17T12:04:39;4.73;;;3.73;;
11447;SDS011;43755;49.736;8.734;2024-03-17T12:06:44;5.28;;;4.00;;
11447;SDS011;43755;49.736;8.734;2024-03-17T12:08:45;5.00;;;4.07;;
11447;SDS011;43755;49.736;8.734;2024-03-17T12:10:47;7.35;;;4.20;;
11447;SDS011;43755;49.736;8.734;2024-03-17T12:12:49;4.85;;;3.80;;
11447;SDS011;43755;49.736;8.734;2024-03-17T12:14:51;7.47;;;4.00;;
11447;SDS011;43755;49.736;8.734;2024-03-17T12:16:52;6.33;;;4.50;;
11447;SDS011;43755;49.736;8.734;2024-03-17T12:19:04;4.35;;;3.90;;
11447;SDS011;43755;49.736;8.734;2024-03-17T12:21:10;4.97;;;4.00;;
11447;SDS011;43755;49.736;8.734;2024-03-17T12:23:14;11.25;;;4.28;;